Time;durP1;ratioP1;P1;durP2;ratioP2;P2;SDS_P1;SDS_P2;PMS_P1;PMS_P2;Temp;Humidity;BMP_temperature;BMP_pressure;BME280_temperature;BME280_humidity;BME280_pressure;Samples;Min_cycle;Max_cycle;Signal;HPM_P1;HPM_P2
2021/09/19 00:00:01;;;;;;;0.10;0.10;;;;;;;16.99;61.13;101674.84;5035729;28;20037;-82
2021/09/19 00:02:28;;;;;;;0.00;0.00;;;;;;;16.99;61.26;101669.47;5035039;28;20033;-85
2021/09/19 00:04:54;;;;;;;0.85;0.82;;;;;;;16.98;60.45;101667.72;5034573;28;20032;-84
2021/09/19 00:07:21;;;;;;;0.10;0.10;;;;;;;16.96;60.89;101666.91;5034865;28;20052;-83
2021/09/19 00:09:48;;;;;;;0.10;0.10;;;;;;;16.94;60.67;101666.09;5034383;28;20033;-84
2021/09/19 00:12:14;;;;;;;0.10;0.10;;;;;;;16.93;61.07;101658.97;5033962;28;20124;-83
2021/09/19 00:14:42;;;;;;;0.28;0.28;;;;;;;16.90;61.08;101661.75;5033361;28;20033;-81
2021/09/19 00:17:08;;;;;;;0.10;0.10;;;;;;;16.85;61.36;101658.31;5034874;28;20029;-85
2021/09/19 00:19:34;;;;;;;0.13;0.13;;;;;;;16.84;61.00;101653.91;5034106;28;20033;-83
2021/09/19 00:24:36;;;;;;;0.10;0.10;;;;;;;16.78;60.92;101655.84;5013333;28;20034;-94
2021/09/19 00:27:04;;;;;;;0.10;0.10;;;;;;;16.76;61.37;101649.69;5014683;28;20366;-93
2021/09/19 00:29:31;;;;;;;0.00;0.00;;;;;;;16.72;61.27;101656.03;5015193;28;20025;-93
2021/09/19 00:31:59;;;;;;;0.10;0.10;;;;;;;16.68;61.14;101648.19;5014755;28;20041;-91
2021/09/19 00:34:26;;;;;;;0.10;0.10;;;;;;;16.62;61.58;101649.25;5012414;28;20033;-85
2021/09/19 00:36:56;;;;;;;0.10;0.10;;;;;;;16.60;62.24;101645.78;5001435;28;20381;-92
2021/09/19 00:39:22;;;;;;;0.20;0.20;;;;;;;16.52;60.98;101642.47;5014128;28;20026;-84
2021/09/19 00:41:49;;;;;;;0.10;0.10;;;;;;;16.50;62.20;101646.03;5001006;28;20096;-91
2021/09/19 00:44:15;;;;;;;0.10;0.10;;;;;;;16.51;61.79;101652.28;5011791;28;20579;-85
2021/09/19 00:46:42;;;;;;;0.03;0.03;;;;;;;16.52;61.62;101646.00;4995631;28;20026;-92
2021/09/19 00:49:09;;;;;;;0.10;0.10;;;;;;;16.52;61.76;101647.81;5003963;28;20032;-93
2021/09/19 00:51:44;;;;;;;0.10;0.10;;;;;;;16.47;61.97;101639.91;5002798;28;20034;-88
2021/09/19 00:54:17;;;;;;;0.00;0.00;;;;;;;16.48;61.89;101647.88;4995382;28;20030;-92
2021/09/19 00:56:46;;;;;;;1.55;0.52;;;;;;;16.42;61.69;101645.41;5009883;28;20038;-92
2021/09/19 00:59:13;;;;;;;0.10;0.10;;;;;;;16.39;62.04;101647.34;5003898;28;20026;-93
2021/09/19 01:01:40;;;;;;;1.75;0.38;;;;;;;16.37;61.77;101639.34;5014867;28;20034;-94
2021/09/19 01:04:08;;;;;;;0.55;0.55;;;;;;;16.36;61.51;101642.06;4998789;28;20430;-91
2021/09/19 01:06:35;;;;;;;0.10;0.10;;;;;;;16.33;62.00;101633.19;4999039;28;20026;-94
2021/09/19 01:09:03;;;;;;;0.10;0.10;;;;;;;16.33;61.83;101645.72;5007383;28;20026;-92
2021/09/19 01:11:30;;;;;;;0.10;0.10;;;;;;;16.31;61.72;101639.53;5006399;28;20098;-93
2021/09/19 01:13:58;;;;;;;0.10;0.10;;;;;;;16.29;62.00;101636.03;5014606;28;20121;-93
2021/09/19 01:16:26;;;;;;;0.10;0.10;;;;;;;16.28;62.19;101639.63;5012013;28;20084;-93
2021/09/19 01:18:54;;;;;;;0.10;0.10;;;;;;;16.27;62.19;101637.88;5009425;28;20023;-95
2021/09/19 01:21:20;;;;;;;0.10;0.10;;;;;;;16.27;61.86;101635.22;5003672;28;20057;-94
2021/09/19 01:24:04;;;;;;;0.00;0.00;;;;;;;16.31;62.23;101628.81;5001320;28;20050;-91
2021/09/19 01:26:32;;;;;;;0.30;0.30;;;;;;;16.24;62.05;101627.28;5014270;28;20173;-93
2021/09/19 01:28:59;;;;;;;0.40;0.40;;;;;;;16.22;62.05;101629.13;5014322;28;20030;-80
2021/09/19 01:31:29;;;;;;;0.10;0.10;;;;;;;16.20;62.11;101622.94;5025999;28;20050;-81
2021/09/19 01:33:56;;;;;;;0.00;0.00;;;;;;;16.18;62.56;101614.97;5032291;28;20014;-80
2021/09/19 01:36:23;;;;;;;0.10;0.10;;;;;;;16.17;61.92;101622.13;5020695;28;20049;-81
2021/09/19 01:38:49;;;;;;;0.10;0.10;;;;;;;16.16;62.26;101617.72;5020464;28;20030;-80
2021/09/19 01:41:18;;;;;;;0.17;0.17;;;;;;;16.07;62.62;101617.97;5003777;28;20760;-80
2021/09/19 01:43:44;;;;;;;0.10;0.10;;;;;;;16.12;62.38;101618.69;5000658;28;20034;-79
2021/09/19 01:46:11;;;;;;;0.10;0.10;;;;;;;16.10;62.59;101617.91;5010867;28;20028;-79
2021/09/19 01:48:41;;;;;;;0.10;0.10;;;;;;;16.09;62.56;101620.63;4963839;28;20034;-91
2021/09/19 01:51:09;;;;;;;0.10;0.10;;;;;;;16.08;62.36;101611.72;4996771;28;20026;-94
2021/09/19 01:53:37;;;;;;;0.10;0.10;;;;;;;16.07;62.64;101615.31;4995114;28;20509;-94
2021/09/19 01:56:24;;;;;;;0.10;0.10;;;;;;;16.14;62.19;101610.66;4996320;28;20485;-94
2021/09/19 01:58:53;;;;;;;0.15;0.15;;;;;;;16.07;62.10;101609.09;5002266;28;20500;-93
2021/09/19 02:01:22;;;;;;;0.00;0.00;;;;;;;16.05;62.33;101611.81;5013923;28;20046;-91
2021/09/19 02:03:51;;;;;;;0.10;0.10;;;;;;;16.00;62.49;101613.75;5013767;28;20080;-88
2021/09/19 02:06:18;;;;;;;0.00;0.00;;;;;;;15.99;62.62;101612.00;4996257;28;20035;-92
2021/09/19 02:08:45;;;;;;;0.10;0.10;;;;;;;15.99;62.55;101604.00;5008573;28;20061;-93
2021/09/19 02:11:13;;;;;;;0.40;0.40;;;;;;;15.99;62.90;101602.19;4985703;28;20026;-94
2021/09/19 02:13:43;;;;;;;0.20;0.20;;;;;;;15.99;62.75;101599.50;5013643;28;20037;-94
2021/09/19 02:16:10;;;;;;;0.10;0.10;;;;;;;15.97;63.04;101600.47;5013420;28;20056;-92
2021/09/19 02:18:42;;;;;;;0.52;0.52;;;;;;;15.96;62.51;101598.72;4980886;28;20073;-94
2021/09/19 02:21:12;;;;;;;0.25;0.25;;;;;;;15.96;63.17;101596.06;5005178;28;20034;-94
2021/09/19 02:23:38;;;;;;;0.10;0.10;;;;;;;15.94;62.58;101597.91;5005620;28;20053;-89
2021/09/19 02:26:05;;;;;;;0.10;0.10;;;;;;;15.92;62.39;101605.09;4997614;28;20524;-93
2021/09/19 02:28:32;;;;;;;0.03;0.03;;;;;;;15.91;62.87;101598.00;4994755;28;20018;-94
2021/09/19 02:30:59;;;;;;;0.05;0.05;;;;;;;15.90;62.90;101596.22;4996587;28;20058;-94
2021/09/19 02:33:26;;;;;;;0.10;0.10;;;;;;;15.89;62.66;101594.47;4996629;28;20046;-87
2021/09/19 02:35:53;;;;;;;0.13;0.13;;;;;;;15.89;63.19;101589.13;5011068;28;20026;-82
2021/09/19 02:38:20;;;;;;;0.10;0.10;;;;;;;15.87;62.94;101585.66;4996761;28;20425;-81
2021/09/19 02:40:51;;;;;;;0.10;0.10;;;;;;;15.89;62.82;101589.13;5013649;28;20066;-84
2021/09/19 02:43:19;;;;;;;0.00;0.00;;;;;;;15.87;62.78;101588.31;5009769;28;20381;-80
2021/09/19 02:45:46;;;;;;;3.83;1.05;;;;;;;15.84;62.74;101595.50;5001491;28;20034;-81
2021/09/19 02:48:13;;;;;;;0.47;0.47;;;;;;;15.83;63.06;101583.06;5013023;28;20037;-81
2021/09/19 02:50:39;;;;;;;0.15;0.15;;;;;;;15.83;63.08;101596.41;5001218;28;20057;-81
2021/09/19 02:53:06;;;;;;;0.20;0.20;;;;;;;15.84;62.75;101587.47;5008604;28;20030;-81
2021/09/19 02:55:34;;;;;;;0.10;0.10;;;;;;;15.83;62.82;101585.72;5007537;28;20112;-81
2021/09/19 02:58:00;;;;;;;0.10;0.10;;;;;;;15.82;62.96;101581.31;4984162;28;20033;-81
2021/09/19 03:00:27;;;;;;;0.10;0.10;;;;;;;15.80;62.20;101580.47;5012653;28;20129;-81
2021/09/19 03:02:54;;;;;;;0.30;0.30;;;;;;;15.80;62.64;101571.56;5002419;28;20025;-81
2021/09/19 03:05:21;;;;;;;0.10;0.10;;;;;;;15.77;63.07;101575.19;5005974;28;20033;-81
2021/09/19 03:07:48;;;;;;;0.10;0.10;;;;;;;15.74;62.99;101575.31;5009837;28;20056;-81
2021/09/19 03:10:15;;;;;;;0.10;0.10;;;;;;;15.72;63.57;101570.94;4999657;28;20109;-83
2021/09/19 03:12:42;;;;;;;0.05;0.05;;;;;;;15.75;62.76;101576.16;5015635;28;20099;-82
2021/09/19 03:15:11;;;;;;;0.10;0.10;;;;;;;15.76;62.97;101570.75;5016045;28;20504;-81
2021/09/19 03:17:46;;;;;;;0.10;0.10;;;;;;;15.74;63.19;101575.31;5002483;28;20122;-80
2021/09/19 03:20:15;;;;;;;0.10;0.10;;;;;;;15.73;63.36;101576.22;5012383;28;20076;-81
2021/09/19 03:22:42;;;;;;;0.10;0.10;;;;;;;15.71;62.97;101578.03;5001148;28;20038;-81
2021/09/19 03:25:10;;;;;;;0.10;0.10;;;;;;;15.69;63.18;101578.09;5009705;28;20030;-81
2021/09/19 03:27:38;;;;;;;0.10;0.10;;;;;;;15.69;63.07;101585.25;4996784;28;20540;-81
2021/09/19 03:30:07;;;;;;;0.10;0.10;;;;;;;15.70;62.93;101584.31;5011906;28;20476;-81
2021/09/19 03:32:33;;;;;;;0.10;0.10;;;;;;;15.67;63.07;101577.25;4999127;28;20018;-83
2021/09/19 03:35:01;;;;;;;0.08;0.08;;;;;;;15.70;62.74;101578.97;5008206;28;20486;-81
2021/09/19 03:37:28;;;;;;;0.10;0.10;;;;;;;15.65;62.92;101571.09;5006495;28;20026;-81
2021/09/19 03:39:57;;;;;;;0.00;0.00;;;;;;;15.64;63.14;101566.69;5000561;28;20482;-82
2021/09/19 03:42:23;;;;;;;0.10;0.10;;;;;;;15.61;62.92;101573.91;5010159;28;20120;-84
2021/09/19 03:44:50;;;;;;;0.10;0.10;;;;;;;15.60;63.22;101574.81;5001210;28;20026;-83
2021/09/19 03:47:17;;;;;;;0.10;0.10;;;;;;;15.58;63.43;101568.66;5004674;28;20030;-81
2021/09/19 03:49:43;;;;;;;0.10;0.10;;;;;;;15.56;63.74;101566.03;5007121;28;20034;-81
2021/09/19 03:52:10;;;;;;;0.10;0.10;;;;;;;15.57;63.88;101566.91;4998358;28;20030;-81
2021/09/19 03:54:37;;;;;;;0.20;0.20;;;;;;;15.57;62.95;101564.25;4993165;28;20034;-81
2021/09/19 03:57:03;;;;;;;0.10;0.10;;;;;;;15.56;63.07;101568.69;5001606;28;20026;-80
2021/09/19 03:59:30;;;;;;;0.10;0.10;;;;;;;15.53;63.45;101563.44;5003706;28;20386;-80
2021/09/19 04:01:59;;;;;;;0.08;0.08;;;;;;;15.55;63.28;101563.41;5009819;28;20088;-81
2021/09/19 04:04:26;;;;;;;0.10;0.10;;;;;;;15.49;63.22;101565.34;4998221;28;20449;-81
2021/09/19 04:06:53;;;;;;;0.10;0.10;;;;;;;15.48;63.42;101563.56;5006492;28;20046;-80
2021/09/19 04:09:20;;;;;;;0.10;0.10;;;;;;;15.47;63.13;101567.16;4987375;28;20053;-81
2021/09/19 04:11:46;;;;;;;0.30;0.30;;;;;;;15.46;63.41;101564.53;4993441;28;20047;-81
2021/09/19 04:14:14;;;;;;;0.10;0.10;;;;;;;15.37;63.84;101565.69;5012900;28;20030;-83
2021/09/19 04:16:41;;;;;;;0.10;0.10;;;;;;;15.34;63.62;101563.13;5009993;28;20082;-82
2021/09/19 04:19:08;;;;;;;0.10;0.10;;;;;;;15.31;63.49;101560.53;5002842;28;20022;-80
2021/09/19 04:21:35;;;;;;;0.52;0.52;;;;;;;15.29;63.65;101562.34;5001674;28;20034;-81
2021/09/19 04:24:02;;;;;;;0.10;0.10;;;;;;;15.26;63.63;101567.78;5009902;28;20083;-81
2021/09/19 04:26:29;;;;;;;0.10;0.10;;;;;;;15.25;63.85;101560.69;4997879;28;20392;-80
2021/09/19 04:28:55;;;;;;;0.10;0.10;;;;;;;15.23;63.92;101559.84;5007535;28;20100;-80
2021/09/19 04:31:23;;;;;;;0.10;0.10;;;;;;;15.23;63.91;101557.19;5004813;28;20034;-80
2021/09/19 04:33:50;;;;;;;0.10;0.10;;;;;;;15.20;64.01;101556.38;4998777;28;20497;-80
2021/09/19 04:36:16;;;;;;;0.00;0.00;;;;;;;15.24;63.64;101561.59;5010631;28;20561;-82
2021/09/19 04:38:43;;;;;;;1.98;0.80;;;;;;;15.27;63.95;101558.88;4999462;28;20084;-81
2021/09/19 04:41:15;;;;;;;0.32;0.32;;;;;;;15.31;63.92;101555.19;5005367;28;20393;-80
2021/09/19 04:43:43;;;;;;;0.20;0.20;;;;;;;15.26;63.53;101557.09;5005828;28;20480;-80
2021/09/19 04:46:15;;;;;;;0.22;0.22;;;;;;;15.23;63.66;101552.72;4997553;28;20144;-79
2021/09/19 04:48:44;;;;;;;0.05;0.05;;;;;;;15.22;63.62;101556.31;5008812;28;20033;-81
2021/09/19 04:51:11;;;;;;;0.10;0.10;;;;;;;15.20;63.40;101553.69;5002429;28;20033;-82
2021/09/19 04:53:37;;;;;;;0.10;0.10;;;;;;;15.20;63.42;101553.69;5002252;28;20149;-81
2021/09/19 04:56:07;;;;;;;0.10;0.10;;;;;;;15.18;63.53;101558.19;5010243;28;20030;-81
2021/09/19 04:58:33;;;;;;;0.10;0.10;;;;;;;15.17;63.55;101559.09;4997653;28;20092;-81
2021/09/19 05:01:00;;;;;;;0.10;0.10;;;;;;;15.16;63.97;101557.34;5006455;28;20118;-80
2021/09/19 05:03:26;;;;;;;0.10;0.10;;;;;;;15.15;63.30;101555.63;5005790;28;20054;-92
2021/09/19 05:05:53;;;;;;;0.10;0.10;;;;;;;15.14;63.48;101556.53;5000561;28;20033;-92
2021/09/19 05:08:22;;;;;;;0.10;0.10;;;;;;;15.15;63.63;101560.06;5010297;28;20073;-93
2021/09/19 05:10:49;;;;;;;0.10;0.10;;;;;;;15.14;63.55;101558.31;5002518;28;20022;-95
2021/09/19 05:13:16;;;;;;;0.25;0.25;;;;;;;15.13;63.60;101557.44;5015858;28;20049;-94
2021/09/19 05:15:42;;;;;;;0.00;0.00;;;;;;;15.12;63.59;101561.03;5014631;28;20056;-85
2021/09/19 05:18:08;;;;;;;0.10;0.10;;;;;;;15.13;63.63;101557.44;4997554;28;20030;-95
2021/09/19 05:20:37;;;;;;;0.20;0.20;;;;;;;15.13;63.66;101560.13;5013159;28;20062;-88
2021/09/19 05:23:04;;;;;;;0.00;0.00;;;;;;;15.12;63.47;101561.03;5013511;28;20084;-90
2021/09/19 05:25:34;;;;;;;0.10;0.10;;;;;;;15.12;63.47;101561.03;5015528;28;20196;-94
2021/09/19 05:28:02;;;;;;;0.15;0.15;;;;;;;15.12;63.56;101561.03;4999625;28;20076;-92
2021/09/19 05:30:29;;;;;;;0.80;0.80;;;;;;;15.11;63.67;101561.06;5010641;28;20038;-92
2021/09/19 05:32:55;;;;;;;0.20;0.20;;;;;;;15.10;63.68;101554.84;4994585;28;20050;-92
2021/09/19 05:35:23;;;;;;;0.10;0.10;;;;;;;15.12;64.06;101555.69;5005219;28;20512;-91
2021/09/19 05:37:49;;;;;;;0.10;0.10;;;;;;;15.11;63.78;101553.06;5001749;28;20030;-92
2021/09/19 05:40:16;;;;;;;0.10;0.10;;;;;;;15.12;63.55;101555.69;4995412;28;20533;-90
2021/09/19 05:42:51;;;;;;;0.10;0.10;;;;;;;15.14;63.77;101561.88;5007736;28;20034;-95
2021/09/19 05:45:17;;;;;;;0.10;0.10;;;;;;;15.16;63.93;101561.81;4997343;28;20041;-94
2021/09/19 05:47:44;;;;;;;0.10;0.10;;;;;;;15.17;64.34;101564.44;5000793;28;20026;-95
2021/09/19 05:50:12;;;;;;;0.00;0.00;;;;;;;15.20;63.85;101567.03;5009050;28;20073;-90
2021/09/19 05:52:38;;;;;;;0.88;0.88;;;;;;;15.24;63.86;101564.28;4997809;28;20018;-91
2021/09/19 05:55:05;;;;;;;0.10;0.10;;;;;;;15.25;63.79;101569.56;5006151;28;20025;-94
2021/09/19 05:57:33;;;;;;;0.10;0.10;;;;;;;15.27;63.81;101565.06;5004620;28;20396;-90
2021/09/19 06:00:00;;;;;;;0.10;0.10;;;;;;;15.29;63.75;101567.69;5012782;28;20049;-88
2021/09/19 06:02:26;;;;;;;0.00;0.00;;;;;;;15.30;63.81;101569.44;5012832;28;20505;-86
2021/09/19 06:04:59;;;;;;;0.20;0.20;;;;;;;15.34;63.88;101568.47;5016665;28;20029;-95
2021/09/19 06:07:25;;;;;;;;;;;;;;;15.49;63.52;101565.34;5018238;28;20481;-91
2021/09/19 06:09:52;;;;;;;0.10;0.10;;;;;;;15.39;64.17;101563.84;5004173;28;19921;-95
2021/09/19 06:12:18;;;;;;;0.35;0.35;;;;;;;15.40;63.72;101567.38;5001052;28;20559;-93
2021/09/19 06:14:45;;;;;;;0.10;0.10;;;;;;;15.46;63.85;101565.41;5017672;28;20552;-95
2021/09/19 06:17:11;;;;;;;0.10;0.10;;;;;;;15.46;63.86;101569.88;5008724;28;20497;-88
2021/09/19 06:19:38;;;;;;;0.10;0.10;;;;;;;15.48;63.83;101573.41;5009925;28;20108;-91
2021/09/19 06:22:12;;;;;;;0.10;0.10;;;;;;;15.53;63.88;101577.66;5017341;28;20065;-91
2021/09/19 06:24:39;;;;;;;0.10;0.10;;;;;;;15.55;64.58;101580.28;5017166;28;20405;-95
2021/09/19 06:27:12;;;;;;;0.10;0.10;;;;;;;15.59;64.42;101581.06;5017469;28;20057;-88
2021/09/19 06:29:40;;;;;;;0.38;0.38;;;;;;;15.67;64.15;101589.75;5001757;28;20034;-90
2021/09/19 06:32:08;;;;;;;0.10;0.10;;;;;;;15.71;63.97;101586.06;5017682;28;20033;-94
2021/09/19 06:34:36;;;;;;;0.00;0.00;;;;;;;15.79;64.28;101578.69;5002449;28;20049;-93
2021/09/19 06:37:03;;;;;;;0.10;0.10;;;;;;;15.83;64.67;101580.38;5007230;28;20094;-93
2021/09/19 06:39:29;;;;;;;0.10;0.10;;;;;;;15.88;64.42;101572.25;5008691;28;20381;-93
2021/09/19 06:41:55;;;;;;;0.00;0.00;;;;;;;15.95;64.41;101575.59;5002317;28;20056;-89
2021/09/19 06:44:22;;;;;;;0.10;0.10;;;;;;;15.97;65.53;101579.09;5013106;28;20082;-91
2021/09/19 06:46:48;;;;;;;0.10;0.10;;;;;;;16.08;64.97;101576.97;4997505;28;20057;-89
2021/09/19 06:49:14;;;;;;;0.75;0.75;;;;;;;16.15;64.69;101578.53;5006349;28;20100;-94
2021/09/19 06:51:40;;;;;;;0.75;0.75;;;;;;;16.20;64.71;101573.03;5003155;28;20034;-88
2021/09/19 06:54:06;;;;;;;0.10;0.10;;;;;;;16.28;65.29;101575.47;5013205;28;20034;-91
2021/09/19 06:56:33;;;;;;;0.20;0.20;;;;;;;16.38;64.93;101578.72;5000675;28;20026;-93
2021/09/19 06:58:59;;;;;;;0.73;0.73;;;;;;;16.42;64.82;101578.53;5012122;28;20525;-92
2021/09/19 07:01:26;;;;;;;0.73;0.73;;;;;;;16.50;64.75;101583.66;5006797;28;20030;-86
2021/09/19 07:03:52;;;;;;;0.10;0.10;;;;;;;16.55;66.18;101591.50;5010567;28;20026;-88
2021/09/19 07:06:18;;;;;;;0.28;0.28;;;;;;;16.64;65.67;101593.91;5000178;28;20061;-89
2021/09/19 07:08:45;;;;;;;0.10;0.10;;;;;;;16.74;64.96;101597.16;5010765;28;20030;-88
2021/09/19 07:11:12;;;;;;;0.45;0.45;;;;;;;16.79;65.58;101604.06;5005259;28;20112;-87
2021/09/19 07:13:38;;;;;;;0.10;0.10;;;;;;;16.87;64.84;101600.25;5015478;28;20018;-85
2021/09/19 07:16:05;;;;;;;0.65;0.65;;;;;;;16.96;64.50;101603.53;4999620;28;20474;-86
2021/09/19 07:18:31;;;;;;;0.10;0.10;;;;;;;16.99;65.28;101607.91;5001465;28;20025;-87
2021/09/19 07:20:58;;;;;;;0.30;0.30;;;;;;;17.05;65.00;101605.03;5009156;28;20022;-84
2021/09/19 07:23:25;;;;;;;0.10;0.10;;;;;;;17.14;65.04;101606.50;5006410;28;20034;-77
2021/09/19 07:25:52;;;;;;;0.20;0.20;;;;;;;17.17;65.41;101601.03;5015324;28;20034;-87
2021/09/19 07:28:18;;;;;;;0.20;0.20;;;;;;;17.19;65.48;101599.16;4999478;28;20076;-88
2021/09/19 07:30:45;;;;;;;0.50;0.50;;;;;;;17.26;64.68;101599.84;5011723;28;20030;-89
2021/09/19 07:33:12;;;;;;;0.10;0.10;;;;;;;17.36;65.69;101600.34;5007740;28;20034;-82
2021/09/19 07:35:38;;;;;;;0.17;0.17;;;;;;;17.43;65.01;101594.75;5005753;28;20037;-88
2021/09/19 07:38:07;;;;;;;0.30;0.30;;;;;;;17.46;65.91;101597.28;5014336;28;20434;-86
2021/09/19 07:40:33;;;;;;;0.10;0.10;;;;;;;17.53;66.25;101600.59;5015666;28;20030;-88
2021/09/19 07:43:00;;;;;;;0.10;0.10;;;;;;;17.65;64.68;101599.28;5014828;28;20033;-80
2021/09/19 07:45:27;;;;;;;0.10;0.10;;;;;;;17.71;65.13;101599.06;5014728;28;20045;-81
2021/09/19 07:47:54;;;;;;;0.40;0.40;;;;;;;17.82;64.89;101595.09;5014327;28;20112;-89
2021/09/19 07:50:21;;;;;;;0.30;0.30;;;;;;;17.88;65.02;101600.22;5014103;28;20111;-88
2021/09/19 07:52:53;;;;;;;0.10;0.10;;;;;;;17.99;65.01;101597.16;5014613;28;20559;-89
2021/09/19 07:55:20;;;;;;;0.10;0.10;;;;;;;18.05;64.90;101592.41;5012198;28;20136;-87
2021/09/19 07:57:46;;;;;;;4.80;1.17;;;;;;;18.15;64.41;101598.28;5014853;28;20034;-90
2021/09/19 08:00:13;;;;;;;0.10;0.10;;;;;;;18.22;64.47;101599.78;5014455;28;20112;-84
2021/09/19 08:02:39;;;;;;;0.10;0.10;;;;;;;18.27;64.41;101603.16;5013514;28;20041;-86
2021/09/19 08:05:06;;;;;;;0.30;0.30;;;;;;;18.39;64.10;101607.19;5014127;28;20065;-87
2021/09/19 08:07:32;;;;;;;0.32;0.32;;;;;;;18.48;63.88;101610.41;5014543;28;20026;-89
2021/09/19 08:09:59;;;;;;;0.10;0.10;;;;;;;18.54;64.11;101615.50;5014792;28;20529;-87
2021/09/19 08:12:25;;;;;;;0.10;0.10;;;;;;;18.64;63.62;101610.66;5011158;28;20037;-86
2021/09/19 08:14:51;;;;;;;0.52;0.52;;;;;;;18.73;63.29;101605.75;5011361;28;20029;-80
2021/09/19 08:17:17;;;;;;;0.45;0.45;;;;;;;18.83;63.21;101600.88;5007455;28;20392;-80
2021/09/19 08:19:43;;;;;;;0.10;0.10;;;;;;;18.93;63.28;101601.41;4999541;28;20037;-81
2021/09/19 08:22:09;;;;;;;0.10;0.10;;;;;;;19.01;63.36;101604.59;5014207;28;20362;-81
2021/09/19 08:24:36;;;;;;;0.10;0.10;;;;;;;19.11;62.90;101601.53;5013698;28;20116;-83
2021/09/19 08:27:03;;;;;;;0.30;0.30;;;;;;;19.17;62.71;101593.22;5013883;28;20056;-79
2021/09/19 08:29:29;;;;;;;0.38;0.38;;;;;;;19.22;62.39;101592.03;5013195;28;20044;-78
2021/09/19 08:31:56;;;;;;;1.20;0.88;;;;;;;19.38;62.39;101594.94;5013772;28;20033;-81
2021/09/19 08:34:22;;;;;;;0.20;0.20;;;;;;;19.48;62.25;101598.06;5013435;28;20074;-80
2021/09/19 08:36:48;;;;;;;0.80;0.80;;;;;;;19.51;61.35;101594.38;5008209;28;20037;-82
2021/09/19 08:39:16;;;;;;;1.38;1.27;;;;;;;19.58;61.76;101593.16;5008863;28;20041;-83
2021/09/19 08:41:42;;;;;;;0.10;0.10;;;;;;;19.70;61.16;101603.34;4995372;28;20034;-83
2021/09/19 08:44:08;;;;;;;0.30;0.30;;;;;;;19.80;60.81;101600.22;4995400;28;20102;-82
2021/09/19 08:46:37;;;;;;;0.10;0.10;;;;;;;19.85;60.85;101601.78;4995625;28;20022;-83
2021/09/19 08:49:03;;;;;;;0.70;0.70;;;;;;;19.95;60.49;101595.97;4995077;28;20030;-84
2021/09/19 08:51:29;;;;;;;0.13;0.13;;;;;;;19.98;60.70;101599.38;4994996;28;20030;-82
2021/09/19 08:53:56;;;;;;;0.10;0.10;;;;;;;20.05;60.36;101602.66;4995351;28;20026;-81
2021/09/19 08:56:23;;;;;;;0.10;0.10;;;;;;;20.21;60.03;101600.06;4994919;28;20105;-89
2021/09/19 08:58:50;;;;;;;0.17;0.17;;;;;;;20.24;58.10;101602.63;4993220;28;20461;-84
2021/09/19 09:01:17;;;;;;;0.20;0.20;;;;;;;20.19;57.57;101607.38;4994720;28;20037;-86
2021/09/19 09:03:43;;;;;;;0.10;0.10;;;;;;;20.24;58.85;101608.03;4994496;28;20117;-89
2021/09/19 09:06:10;;;;;;;0.20;0.20;;;;;;;20.46;58.87;101612.34;4994500;28;20114;-91
2021/09/19 09:08:36;;;;;;;0.30;0.30;;;;;;;20.54;58.29;101607.44;4994661;28;20066;-90
2021/09/19 09:11:05;;;;;;;0.30;0.30;;;;;;;20.68;58.01;101601.38;4994616;28;20019;-90
2021/09/19 09:13:36;;;;;;;0.00;0.00;;;;;;;20.77;57.54;101608.13;4994517;28;20030;-91
2021/09/19 09:16:12;;;;;;;0.30;0.30;;;;;;;20.80;57.02;101606.16;4994251;28;20493;-87
2021/09/19 09:24:03;;;;;;;0.30;0.30;;;;;;;20.98;55.51;101620.50;5076797;27;20394;-87
2021/09/19 09:26:32;;;;;;;0.10;0.10;;;;;;;21.14;56.66;101617.03;5071640;28;20162;-89
2021/09/19 09:31:51;;;;;;;0.10;0.10;;;;;;;21.29;56.32;101605.41;5091317;27;20410;-89
2021/09/19 09:37:03;;;;;;;0.10;0.10;;;;;;;21.48;55.20;101609.81;5091498;27;20467;-87
2021/09/19 09:42:16;;;;;;;0.85;0.85;;;;;;;21.64;54.34;101618.00;5091316;27;20385;-91
2021/09/19 09:47:28;;;;;;;0.10;0.10;;;;;;;21.81;54.52;101622.47;5091390;27;20826;-90
2021/09/19 09:49:59;;;;;;;2.50;0.40;;;;;;;21.81;54.90;101615.25;5071296;28;20056;-91
2021/09/19 09:52:28;;;;;;;0.10;0.10;;;;;;;21.85;54.33;101620.47;5069794;28;20415;-87
2021/09/19 09:58:05;;;;;;;0.20;0.20;;;;;;;22.19;54.67;101613.19;5091496;27;20891;-89
2021/09/19 10:00:31;;;;;;;0.10;0.10;;;;;;;22.28;54.06;101613.53;5071197;28;20033;-89
2021/09/19 10:02:58;;;;;;;0.28;0.28;;;;;;;22.38;54.16;101613.91;5065253;28;20033;-90
2021/09/19 10:05:26;;;;;;;0.10;0.10;;;;;;;22.40;52.51;101616.50;5051255;28;20025;-90
2021/09/19 10:07:53;;;;;;;0.10;0.10;;;;;;;22.45;52.07;101615.31;5050982;28;20029;-92
2021/09/19 10:10:21;;;;;;;0.40;0.40;;;;;;;22.56;52.05;101628.16;5050984;28;20036;-89
2021/09/19 10:12:50;;;;;;;0.10;0.10;;;;;;;22.59;52.89;101625.28;5051076;28;20087;-89
2021/09/19 10:15:19;;;;;;;0.10;0.10;;;;;;;22.69;52.22;101628.34;5050785;28;20029;-90
2021/09/19 10:17:45;;;;;;;0.10;0.10;;;;;;;22.77;51.87;101625.16;5050855;28;20033;-90
2021/09/19 10:20:15;;;;;;;0.30;0.30;;;;;;;22.92;52.45;101618.84;5050640;28;20088;-90
2021/09/19 10:25:37;;;;;;;0.13;0.13;;;;;;;23.09;51.38;101622.34;5091112;27;20429;-87
2021/09/19 10:39:22;;;;;;;0.15;0.15;;;;;;;23.59;51.33;101604.88;5111723;27;20396;-87
2021/09/19 10:55:48;;;;;;;0.10;0.10;;;;;;;24.02;49.67;101586.88;5071539;28;20390;-85
2021/09/19 10:58:21;;;;;;;0.20;0.20;;;;;;;24.00;49.07;101588.81;5071473;28;20033;-83
2021/09/19 11:06:46;;;;;;;0.20;0.20;;;;;;;24.15;49.14;101600.47;5091490;27;20422;-84
2021/09/19 11:09:35;;;;;;;0.10;0.10;;;;;;;24.26;48.71;101600.63;5070965;28;20038;-84
2021/09/19 11:12:11;;;;;;;0.10;0.10;;;;;;;24.30;48.69;101601.28;5072015;28;20036;-85
2021/09/19 11:15:12;;;;;;;0.10;0.10;;;;;;;24.36;48.05;101595.47;5052619;28;20084;-85
2021/09/19 11:17:48;;;;;;;0.10;0.10;;;;;;;24.33;48.88;101601.13;5050453;28;20029;-85
2021/09/19 11:23:20;;;;;;;0.55;0.47;;;;;;;24.51;48.41;101599.00;5086405;28;20473;-85
2021/09/19 11:25:47;;;;;;;0.10;0.10;;;;;;;24.68;48.13;101590.63;5069329;28;20060;-78
2021/09/19 11:28:15;;;;;;;0.10;0.10;;;;;;;24.73;47.78;101587.63;5068485;28;20505;-79
2021/09/19 11:30:41;;;;;;;0.20;0.20;;;;;;;24.86;46.80;101588.50;5070267;28;20041;-80
2021/09/19 11:33:11;;;;;;;0.40;0.40;;;;;;;24.94;47.90;101585.28;5067134;28;20033;-79
2021/09/19 11:35:39;;;;;;;0.93;0.90;;;;;;;24.92;47.48;101584.50;5056989;28;20051;-83
2021/09/19 11:38:05;;;;;;;0.10;0.10;;;;;;;25.01;47.34;101585.69;5067506;28;20021;-80
2021/09/19 11:40:32;;;;;;;0.10;0.10;;;;;;;25.04;47.29;101585.50;5069099;28;20033;-81
2021/09/19 11:43:05;;;;;;;0.30;0.30;;;;;;;25.12;47.13;101591.28;5065950;28;20468;-81
2021/09/19 11:45:33;;;;;;;0.20;0.20;;;;;;;25.12;46.39;101585.84;5069496;28;20029;-83
2021/09/19 11:48:00;;;;;;;0.20;0.20;;;;;;;25.20;47.63;101580.72;5063151;28;20607;-81
2021/09/19 11:50:27;;;;;;;0.17;0.17;;;;;;;25.25;47.25;101571.44;5065889;28;20035;-81
2021/09/19 11:52:53;;;;;;;0.10;0.10;;;;;;;25.30;47.50;101575.53;5066700;28;20059;-79
2021/09/19 11:55:21;;;;;;;0.10;0.10;;;;;;;25.28;46.44;101572.03;5066324;28;20486;-79
2021/09/19 11:57:48;;;;;;;0.20;0.20;;;;;;;25.34;47.58;101565.31;5056280;28;20160;-82
2021/09/19 12:00:15;;;;;;;0.10;0.10;;;;;;;25.45;46.63;101568.16;5066368;28;20032;-81
2021/09/19 12:02:42;;;;;;;0.10;0.10;;;;;;;25.52;47.09;101560.44;5053128;28;20055;-82
2021/09/19 12:05:09;;;;;;;1.77;1.65;;;;;;;25.68;46.87;101557.50;5058669;28;20112;-80
2021/09/19 12:07:35;;;;;;;0.10;0.10;;;;;;;25.75;46.34;101558.78;5062058;28;20020;-80
2021/09/19 12:10:04;;;;;;;0.45;0.30;;;;;;;25.80;46.04;101558.47;5070267;28;20029;-82
2021/09/19 12:12:30;;;;;;;0.10;0.10;;;;;;;25.77;45.62;101561.38;5067460;28;20033;-80
2021/09/19 12:14:57;;;;;;;0.22;0.22;;;;;;;25.77;45.69;101551.41;5069510;28;20124;-80
2021/09/19 12:17:28;;;;;;;0.10;0.10;;;;;;;25.83;45.90;101560.94;5058434;28;20034;-80
2021/09/19 12:20:01;;;;;;;0.10;0.10;;;;;;;25.84;45.54;101547.28;5054910;28;20063;-80
2021/09/19 12:22:29;;;;;;;0.10;0.10;;;;;;;25.90;45.64;101545.06;5063838;28;20361;-80
2021/09/19 12:25:00;;;;;;;0.10;0.10;;;;;;;25.96;44.81;101545.47;5058707;28;20057;-80